sensor_id;sensor_type;location;lat;lon;timestamp;P1;durP1;ratioP1;P2;durP2;ratioP2
21046;SDS011;10682;50.874;3.656;2023-07-20T00:00:45;18.73;;;6.05;;
21046;SDS011;10682;50.874;3.656;2023-07-20T00:03:13;15.60;;;6.10;;
21046;SDS011;10682;50.874;3.656;2023-07-20T00:05:45;14.88;;;6.00;;
21046;SDS011;10682;50.874;3.656;2023-07-20T00:08:13;20.30;;;6.35;;
21046;SDS011;10682;50.874;3.656;2023-07-20T00:10:40;15.70;;;5.78;;
21046;SDS011;10682;50.874;3.656;2023-07-20T00:13:08;20.13;;;6.18;;
21046;SDS011;10682;50.874;3.656;2023-07-20T00:15:37;23.65;;;6.68;;
21046;SDS011;10682;50.874;3.656;2023-07-20T00:18:05;16.90;;;5.78;;
21046;SDS011;10682;50.874;3.656;2023-07-20T00:20:32;19.95;;;6.40;;
21046;SDS011;10682;50.874;3.656;2023-07-20T00:22:59;18.30;;;6.45;;
21046;SDS011;10682;50.874;3.656;2023-07-20T00:25:26;17.90;;;6.55;;
21046;SDS011;10682;50.874;3.656;2023-07-20T00:27:54;19.27;;;6.32;;
21046;SDS011;10682;50.874;3.656;2023-07-20T00:30:23;16.42;;;6.78;;
21046;SDS011;10682;50.874;3.656;2023-07-20T00:32:50;24.25;;;6.55;;
21046;SDS011;10682;50.874;3.656;2023-07-20T00:35:17;21.27;;;6.53;;
21046;SDS011;10682;50.874;3.656;2023-07-20T00:37:45;16.25;;;7.13;;
21046;SDS011;10682;50.874;3.656;2023-07-20T00:40:12;23.85;;;6.93;;
21046;SDS011;10682;50.874;3.656;2023-07-20T00:42:39;21.15;;;7.07;;
21046;SDS011;10682;50.874;3.656;2023-07-20T00:45:07;23.08;;;7.05;;
21046;SDS011;10682;50.874;3.656;2023-07-20T00:47:34;24.48;;;7.45;;
21046;SDS011;10682;50.874;3.656;2023-07-20T00:50:03;22.27;;;7.53;;
21046;SDS011;10682;50.874;3.656;2023-07-20T00:52:31;25.73;;;7.55;;
21046;SDS011;10682;50.874;3.656;2023-07-20T00:54:59;21.45;;;8.10;;
21046;SDS011;10682;50.874;3.656;2023-07-20T00:57:27;18.75;;;7.60;;
21046;SDS011;10682;50.874;3.656;2023-07-20T00:59:54;16.23;;;7.90;;
21046;SDS011;10682;50.874;3.656;2023-07-20T01:02:21;26.40;;;8.32;;
21046;SDS011;10682;50.874;3.656;2023-07-20T01:04:48;18.85;;;7.93;;
21046;SDS011;10682;50.874;3.656;2023-07-20T01:07:23;21.33;;;8.02;;
21046;SDS011;10682;50.874;3.656;2023-07-20T01:12:54;22.65;;;8.98;;
21046;SDS011;10682;50.874;3.656;2023-07-20T01:15:22;21.35;;;8.30;;
21046;SDS011;10682;50.874;3.656;2023-07-20T01:17:49;21.27;;;9.15;;
21046;SDS011;10682;50.874;3.656;2023-07-20T01:20:16;20.17;;;8.23;;
21046;SDS011;10682;50.874;3.656;2023-07-20T01:23:01;21.33;;;8.73;;
21046;SDS011;10682;50.874;3.656;2023-07-20T01:31:36;26.27;;;8.80;;
21046;SDS011;10682;50.874;3.656;2023-07-20T01:34:04;23.40;;;8.82;;
21046;SDS011;10682;50.874;3.656;2023-07-20T01:36:35;16.70;;;8.65;;
21046;SDS011;10682;50.874;3.656;2023-07-20T01:39:04;21.35;;;8.82;;
21046;SDS011;10682;50.874;3.656;2023-07-20T01:41:32;22.90;;;9.10;;
21046;SDS011;10682;50.874;3.656;2023-07-20T01:43:59;24.20;;;8.80;;
21046;SDS011;10682;50.874;3.656;2023-07-20T01:46:27;19.92;;;8.52;;
21046;SDS011;10682;50.874;3.656;2023-07-20T01:48:54;22.92;;;9.40;;
21046;SDS011;10682;50.874;3.656;2023-07-20T01:51:21;25.02;;;9.75;;
21046;SDS011;10682;50.874;3.656;2023-07-20T01:53:49;17.13;;;9.13;;
21046;SDS011;10682;50.874;3.656;2023-07-20T01:56:16;17.50;;;8.93;;
21046;SDS011;10682;50.874;3.656;2023-07-20T01:58:43;19.77;;;8.77;;
21046;SDS011;10682;50.874;3.656;2023-07-20T02:01:10;23.92;;;8.80;;
21046;SDS011;10682;50.874;3.656;2023-07-20T02:03:37;20.00;;;8.88;;
21046;SDS011;10682;50.874;3.656;2023-07-20T02:06:04;21.08;;;8.50;;
21046;SDS011;10682;50.874;3.656;2023-07-20T02:08:31;21.50;;;9.15;;
21046;SDS011;10682;50.874;3.656;2023-07-20T02:10:59;21.02;;;8.95;;
21046;SDS011;10682;50.874;3.656;2023-07-20T02:13:26;27.85;;;10.13;;
21046;SDS011;10682;50.874;3.656;2023-07-20T02:15:54;20.63;;;10.35;;
21046;SDS011;10682;50.874;3.656;2023-07-20T02:18:21;21.52;;;10.50;;
21046;SDS011;10682;50.874;3.656;2023-07-20T02:20:48;29.35;;;11.38;;
21046;SDS011;10682;50.874;3.656;2023-07-20T02:23:15;25.30;;;10.30;;
21046;SDS011;10682;50.874;3.656;2023-07-20T02:25:42;24.88;;;10.88;;
21046;SDS011;10682;50.874;3.656;2023-07-20T02:28:12;29.48;;;11.45;;
21046;SDS011;10682;50.874;3.656;2023-07-20T02:30:40;25.90;;;11.70;;
21046;SDS011;10682;50.874;3.656;2023-07-20T02:33:07;24.45;;;11.77;;
21046;SDS011;10682;50.874;3.656;2023-07-20T02:35:37;22.67;;;11.90;;
21046;SDS011;10682;50.874;3.656;2023-07-20T02:38:06;33.15;;;11.73;;
21046;SDS011;10682;50.874;3.656;2023-07-20T02:40:34;26.80;;;11.13;;
21046;SDS011;10682;50.874;3.656;2023-07-20T02:43:01;26.85;;;11.75;;
21046;SDS011;10682;50.874;3.656;2023-07-20T02:45:28;26.67;;;10.88;;
21046;SDS011;10682;50.874;3.656;2023-07-20T02:47:56;28.67;;;11.98;;
21046;SDS011;10682;50.874;3.656;2023-07-20T02:50:23;25.33;;;11.18;;
21046;SDS011;10682;50.874;3.656;2023-07-20T02:52:50;25.10;;;11.45;;
21046;SDS011;10682;50.874;3.656;2023-07-20T02:55:17;24.23;;;12.05;;
21046;SDS011;10682;50.874;3.656;2023-07-20T02:57:45;22.17;;;11.15;;
21046;SDS011;10682;50.874;3.656;2023-07-20T03:00:13;27.17;;;12.35;;
21046;SDS011;10682;50.874;3.656;2023-07-20T03:02:42;23.42;;;11.68;;
21046;SDS011;10682;50.874;3.656;2023-07-20T03:05:09;28.70;;;12.85;;
21046;SDS011;10682;50.874;3.656;2023-07-20T03:07:37;23.30;;;11.63;;
21046;SDS011;10682;50.874;3.656;2023-07-20T03:10:04;24.17;;;12.23;;
21046;SDS011;10682;50.874;3.656;2023-07-20T03:12:35;21.77;;;11.95;;
21046;SDS011;10682;50.874;3.656;2023-07-20T03:15:02;21.83;;;11.45;;
21046;SDS011;10682;50.874;3.656;2023-07-20T03:17:30;22.50;;;11.10;;
21046;SDS011;10682;50.874;3.656;2023-07-20T03:19:57;17.13;;;10.63;;
21046;SDS011;10682;50.874;3.656;2023-07-20T03:22:26;24.98;;;10.77;;
21046;SDS011;10682;50.874;3.656;2023-07-20T03:24:54;24.50;;;11.93;;
21046;SDS011;10682;50.874;3.656;2023-07-20T03:27:21;24.33;;;11.57;;
21046;SDS011;10682;50.874;3.656;2023-07-20T03:29:48;29.77;;;11.82;;
21046;SDS011;10682;50.874;3.656;2023-07-20T03:32:15;24.38;;;12.13;;
21046;SDS011;10682;50.874;3.656;2023-07-20T03:34:42;21.02;;;11.80;;
21046;SDS011;10682;50.874;3.656;2023-07-20T03:37:10;22.05;;;11.45;;
21046;SDS011;10682;50.874;3.656;2023-07-20T03:39:37;25.33;;;12.65;;
21046;SDS011;10682;50.874;3.656;2023-07-20T03:42:05;23.63;;;13.07;;
21046;SDS011;10682;50.874;3.656;2023-07-20T03:44:33;26.42;;;13.63;;
21046;SDS011;10682;50.874;3.656;2023-07-20T03:47:00;24.25;;;12.75;;
21046;SDS011;10682;50.874;3.656;2023-07-20T03:49:27;24.52;;;12.50;;
21046;SDS011;10682;50.874;3.656;2023-07-20T03:51:55;26.25;;;13.43;;
21046;SDS011;10682;50.874;3.656;2023-07-20T03:54:22;34.80;;;14.13;;
21046;SDS011;10682;50.874;3.656;2023-07-20T03:56:49;19.88;;;11.70;;
21046;SDS011;10682;50.874;3.656;2023-07-20T03:59:16;23.67;;;11.40;;
21046;SDS011;10682;50.874;3.656;2023-07-20T04:01:43;24.40;;;11.30;;
21046;SDS011;10682;50.874;3.656;2023-07-20T04:04:11;25.33;;;13.38;;
21046;SDS011;10682;50.874;3.656;2023-07-20T04:06:38;23.90;;;12.60;;
21046;SDS011;10682;50.874;3.656;2023-07-20T04:09:05;22.02;;;11.77;;
21046;SDS011;10682;50.874;3.656;2023-07-20T04:11:32;25.70;;;12.93;;
21046;SDS011;10682;50.874;3.656;2023-07-20T04:13:59;21.48;;;11.52;;
21046;SDS011;10682;50.874;3.656;2023-07-20T04:16:26;24.27;;;12.35;;
21046;SDS011;10682;50.874;3.656;2023-07-20T04:18:56;24.70;;;12.10;;
21046;SDS011;10682;50.874;3.656;2023-07-20T04:21:27;22.95;;;12.48;;
21046;SDS011;10682;50.874;3.656;2023-07-20T04:23:55;27.10;;;13.68;;
21046;SDS011;10682;50.874;3.656;2023-07-20T04:26:22;22.75;;;12.25;;
21046;SDS011;10682;50.874;3.656;2023-07-20T04:28:49;20.85;;;12.02;;
21046;SDS011;10682;50.874;3.656;2023-07-20T04:31:17;24.83;;;13.57;;
21046;SDS011;10682;50.874;3.656;2023-07-20T04:34:02;24.23;;;13.00;;
21046;SDS011;10682;50.874;3.656;2023-07-20T04:36:39;25.58;;;12.35;;
21046;SDS011;10682;50.874;3.656;2023-07-20T04:39:07;27.13;;;13.43;;
21046;SDS011;10682;50.874;3.656;2023-07-20T04:41:55;25.20;;;11.73;;
21046;SDS011;10682;50.874;3.656;2023-07-20T04:44:22;25.70;;;13.52;;
21046;SDS011;10682;50.874;3.656;2023-07-20T04:46:49;22.33;;;11.85;;
21046;SDS011;10682;50.874;3.656;2023-07-20T04:49:17;21.95;;;11.70;;
21046;SDS011;10682;50.874;3.656;2023-07-20T04:51:45;19.85;;;12.23;;
21046;SDS011;10682;50.874;3.656;2023-07-20T04:54:12;17.90;;;11.45;;
21046;SDS011;10682;50.874;3.656;2023-07-20T04:56:40;23.85;;;12.52;;
21046;SDS011;10682;50.874;3.656;2023-07-20T04:59:07;20.83;;;11.27;;
21046;SDS011;10682;50.874;3.656;2023-07-20T05:01:34;17.77;;;10.65;;
21046;SDS011;10682;50.874;3.656;2023-07-20T05:04:01;19.40;;;12.43;;
21046;SDS011;10682;50.874;3.656;2023-07-20T05:06:29;18.52;;;9.85;;
21046;SDS011;10682;50.874;3.656;2023-07-20T05:08:56;20.13;;;11.50;;
21046;SDS011;10682;50.874;3.656;2023-07-20T05:11:23;21.08;;;11.85;;
21046;SDS011;10682;50.874;3.656;2023-07-20T05:13:50;21.58;;;12.05;;
21046;SDS011;10682;50.874;3.656;2023-07-20T05:16:20;20.13;;;12.45;;
21046;SDS011;10682;50.874;3.656;2023-07-20T05:18:47;17.75;;;10.90;;
21046;SDS011;10682;50.874;3.656;2023-07-20T05:21:14;25.40;;;12.40;;
21046;SDS011;10682;50.874;3.656;2023-07-20T05:23:42;18.73;;;12.00;;
21046;SDS011;10682;50.874;3.656;2023-07-20T05:26:10;24.35;;;12.57;;
21046;SDS011;10682;50.874;3.656;2023-07-20T05:28:37;23.55;;;13.07;;
21046;SDS011;10682;50.874;3.656;2023-07-20T05:31:05;17.83;;;12.90;;
21046;SDS011;10682;50.874;3.656;2023-07-20T05:33:32;23.23;;;13.63;;
21046;SDS011;10682;50.874;3.656;2023-07-20T05:35:59;25.20;;;13.48;;
21046;SDS011;10682;50.874;3.656;2023-07-20T05:38:27;18.55;;;11.48;;
21046;SDS011;10682;50.874;3.656;2023-07-20T05:40:58;19.20;;;12.48;;
21046;SDS011;10682;50.874;3.656;2023-07-20T05:43:29;19.25;;;11.82;;
21046;SDS011;10682;50.874;3.656;2023-07-20T05:45:57;17.67;;;10.85;;
21046;SDS011;10682;50.874;3.656;2023-07-20T05:48:24;15.88;;;10.40;;
21046;SDS011;10682;50.874;3.656;2023-07-20T05:50:51;16.60;;;12.30;;
21046;SDS011;10682;50.874;3.656;2023-07-20T05:53:18;18.02;;;12.18;;
21046;SDS011;10682;50.874;3.656;2023-07-20T05:55:51;13.57;;;9.77;;
21046;SDS011;10682;50.874;3.656;2023-07-20T05:58:21;19.10;;;12.48;;
21046;SDS011;10682;50.874;3.656;2023-07-20T06:00:50;22.92;;;13.57;;
21046;SDS011;10682;50.874;3.656;2023-07-20T06:03:17;24.52;;;13.70;;
21046;SDS011;10682;50.874;3.656;2023-07-20T06:05:44;22.00;;;13.95;;
21046;SDS011;10682;50.874;3.656;2023-07-20T06:08:12;21.52;;;13.48;;
21046;SDS011;10682;50.874;3.656;2023-07-20T06:10:39;19.70;;;12.93;;
21046;SDS011;10682;50.874;3.656;2023-07-20T06:13:09;19.92;;;13.43;;
21046;SDS011;10682;50.874;3.656;2023-07-20T06:15:38;20.27;;;12.68;;
21046;SDS011;10682;50.874;3.656;2023-07-20T06:18:05;16.90;;;12.40;;
21046;SDS011;10682;50.874;3.656;2023-07-20T06:20:32;22.45;;;13.10;;
21046;SDS011;10682;50.874;3.656;2023-07-20T06:22:59;17.00;;;11.25;;
21046;SDS011;10682;50.874;3.656;2023-07-20T06:25:26;16.85;;;10.35;;
21046;SDS011;10682;50.874;3.656;2023-07-20T06:27:55;16.65;;;11.07;;
21046;SDS011;10682;50.874;3.656;2023-07-20T06:30:22;16.98;;;10.85;;
21046;SDS011;10682;50.874;3.656;2023-07-20T06:32:51;19.02;;;11.10;;
21046;SDS011;10682;50.874;3.656;2023-07-20T06:35:18;14.02;;;9.75;;
21046;SDS011;10682;50.874;3.656;2023-07-20T06:37:45;15.70;;;9.52;;
21046;SDS011;10682;50.874;3.656;2023-07-20T06:40:12;16.63;;;9.48;;
21046;SDS011;10682;50.874;3.656;2023-07-20T06:42:42;17.05;;;9.82;;
21046;SDS011;10682;50.874;3.656;2023-07-20T06:45:13;16.63;;;8.85;;
21046;SDS011;10682;50.874;3.656;2023-07-20T06:47:40;14.95;;;9.23;;
21046;SDS011;10682;50.874;3.656;2023-07-20T06:50:07;19.83;;;9.02;;
21046;SDS011;10682;50.874;3.656;2023-07-20T06:52:35;14.27;;;8.90;;
21046;SDS011;10682;50.874;3.656;2023-07-20T06:55:03;14.25;;;8.95;;
21046;SDS011;10682;50.874;3.656;2023-07-20T06:57:32;15.93;;;9.57;;
21046;SDS011;10682;50.874;3.656;2023-07-20T06:59:59;12.60;;;8.23;;
21046;SDS011;10682;50.874;3.656;2023-07-20T07:02:26;12.10;;;7.32;;
21046;SDS011;10682;50.874;3.656;2023-07-20T07:04:53;12.25;;;7.22;;
21046;SDS011;10682;50.874;3.656;2023-07-20T07:07:24;5.65;;;3.90;;
21046;SDS011;10682;50.874;3.656;2023-07-20T07:09:52;5.97;;;3.80;;
21046;SDS011;10682;50.874;3.656;2023-07-20T07:12:20;7.57;;;3.67;;
21046;SDS011;10682;50.874;3.656;2023-07-20T07:14:47;7.93;;;3.20;;
21046;SDS011;10682;50.874;3.656;2023-07-20T07:17:14;5.32;;;3.60;;
21046;SDS011;10682;50.874;3.656;2023-07-20T07:19:45;7.30;;;5.22;;
21046;SDS011;10682;50.874;3.656;2023-07-20T07:22:15;7.65;;;4.88;;
21046;SDS011;10682;50.874;3.656;2023-07-20T07:24:42;8.35;;;4.75;;
21046;SDS011;10682;50.874;3.656;2023-07-20T07:27:09;10.40;;;4.60;;
21046;SDS011;10682;50.874;3.656;2023-07-20T07:29:37;3.83;;;2.28;;
21046;SDS011;10682;50.874;3.656;2023-07-20T07:32:04;3.70;;;1.88;;
21046;SDS011;10682;50.874;3.656;2023-07-20T07:34:32;2.33;;;1.10;;
21046;SDS011;10682;50.874;3.656;2023-07-20T07:37:01;2.47;;;1.50;;
21046;SDS011;10682;50.874;3.656;2023-07-20T07:39:28;4.82;;;1.55;;
21046;SDS011;10682;50.874;3.656;2023-07-20T07:42:01;4.50;;;2.10;;
21046;SDS011;10682;50.874;3.656;2023-07-20T07:44:28;2.35;;;1.88;;
21046;SDS011;10682;50.874;3.656;2023-07-20T07:46:55;3.40;;;1.73;;
21046;SDS011;10682;50.874;3.656;2023-07-20T07:49:22;3.63;;;1.40;;
21046;SDS011;10682;50.874;3.656;2023-07-20T07:51:50;2.72;;;1.80;;
21046;SDS011;10682;50.874;3.656;2023-07-20T07:54:18;3.78;;;2.20;;
21046;SDS011;10682;50.874;3.656;2023-07-20T07:56:45;5.97;;;2.75;;
21046;SDS011;10682;50.874;3.656;2023-07-20T07:59:13;2.85;;;2.50;;
21046;SDS011;10682;50.874;3.656;2023-07-20T08:01:40;3.53;;;2.30;;
21046;SDS011;10682;50.874;3.656;2023-07-20T08:04:07;5.18;;;2.20;;
21046;SDS011;10682;50.874;3.656;2023-07-20T08:06:34;4.70;;;2.70;;
21046;SDS011;10682;50.874;3.656;2023-07-20T08:09:01;3.00;;;2.42;;
21046;SDS011;10682;50.874;3.656;2023-07-20T08:11:29;3.33;;;2.45;;
21046;SDS011;10682;50.874;3.656;2023-07-20T08:13:57;4.22;;;2.10;;
21046;SDS011;10682;50.874;3.656;2023-07-20T08:16:24;3.03;;;2.38;;
21046;SDS011;10682;50.874;3.656;2023-07-20T08:18:52;3.63;;;2.25;;
21046;SDS011;10682;50.874;3.656;2023-07-20T08:21:20;3.92;;;2.10;;
21046;SDS011;10682;50.874;3.656;2023-07-20T08:23:47;5.13;;;2.75;;
21046;SDS011;10682;50.874;3.656;2023-07-20T08:26:14;4.88;;;1.98;;
21046;SDS011;10682;50.874;3.656;2023-07-20T08:28:42;5.07;;;1.98;;
21046;SDS011;10682;50.874;3.656;2023-07-20T08:31:10;3.47;;;1.30;;
21046;SDS011;10682;50.874;3.656;2023-07-20T08:33:37;3.58;;;1.63;;
21046;SDS011;10682;50.874;3.656;2023-07-20T08:36:04;1.38;;;1.20;;
21046;SDS011;10682;50.874;3.656;2023-07-20T08:38:32;3.72;;;1.63;;
21046;SDS011;10682;50.874;3.656;2023-07-20T08:40:59;2.45;;;1.70;;
21046;SDS011;10682;50.874;3.656;2023-07-20T08:43:28;4.50;;;1.80;;
21046;SDS011;10682;50.874;3.656;2023-07-20T08:45:56;3.03;;;1.65;;
21046;SDS011;10682;50.874;3.656;2023-07-20T08:48:24;2.75;;;1.80;;
21046;SDS011;10682;50.874;3.656;2023-07-20T08:50:51;3.38;;;1.92;;
21046;SDS011;10682;50.874;3.656;2023-07-20T08:53:23;2.17;;;1.98;;
21046;SDS011;10682;50.874;3.656;2023-07-20T08:55:51;1.70;;;1.38;;
21046;SDS011;10682;50.874;3.656;2023-07-20T08:58:21;4.15;;;1.50;;
21046;SDS011;10682;50.874;3.656;2023-07-20T09:00:50;2.00;;;1.50;;
21046;SDS011;10682;50.874;3.656;2023-07-20T09:03:18;7.65;;;1.70;;
21046;SDS011;10682;50.874;3.656;2023-07-20T09:05:46;4.57;;;1.60;;
21046;SDS011;10682;50.874;3.656;2023-07-20T09:08:13;3.05;;;1.35;;
21046;SDS011;10682;50.874;3.656;2023-07-20T09:10:40;1.83;;;1.20;;
21046;SDS011;10682;50.874;3.656;2023-07-20T09:13:07;2.70;;;1.30;;
21046;SDS011;10682;50.874;3.656;2023-07-20T09:15:36;2.22;;;1.50;;
21046;SDS011;10682;50.874;3.656;2023-07-20T09:18:03;3.00;;;1.20;;
21046;SDS011;10682;50.874;3.656;2023-07-20T09:20:32;6.35;;;1.40;;
21046;SDS011;10682;50.874;3.656;2023-07-20T09:23:05;2.58;;;1.60;;
21046;SDS011;10682;50.874;3.656;2023-07-20T09:25:32;3.55;;;1.85;;
21046;SDS011;10682;50.874;3.656;2023-07-20T09:28:02;4.30;;;1.73;;
21046;SDS011;10682;50.874;3.656;2023-07-20T09:30:31;1.58;;;1.00;;
21046;SDS011;10682;50.874;3.656;2023-07-20T09:32:59;1.88;;;0.90;;
21046;SDS011;10682;50.874;3.656;2023-07-20T09:35:27;3.13;;;1.30;;
21046;SDS011;10682;50.874;3.656;2023-07-20T09:38:07;3.33;;;1.33;;
21046;SDS011;10682;50.874;3.656;2023-07-20T09:40:38;2.33;;;1.20;;
21046;SDS011;10682;50.874;3.656;2023-07-20T09:43:09;1.10;;;1.00;;
21046;SDS011;10682;50.874;3.656;2023-07-20T09:45:41;3.85;;;1.20;;
21046;SDS011;10682;50.874;3.656;2023-07-20T09:48:12;1.85;;;1.00;;
21046;SDS011;10682;50.874;3.656;2023-07-20T09:50:42;2.97;;;1.23;;
21046;SDS011;10682;50.874;3.656;2023-07-20T09:53:19;2.10;;;1.20;;
21046;SDS011;10682;50.874;3.656;2023-07-20T09:55:47;3.65;;;1.27;;
21046;SDS011;10682;50.874;3.656;2023-07-20T09:58:15;2.15;;;1.02;;
21046;SDS011;10682;50.874;3.656;2023-07-20T10:00:44;1.40;;;1.10;;
21046;SDS011;10682;50.874;3.656;2023-07-20T10:03:21;3.65;;;1.35;;
21046;SDS011;10682;50.874;3.656;2023-07-20T10:06:00;1.90;;;1.25;;
21046;SDS011;10682;50.874;3.656;2023-07-20T10:08:34;3.30;;;1.30;;
21046;SDS011;10682;50.874;3.656;2023-07-20T10:11:09;2.22;;;1.10;;
21046;SDS011;10682;50.874;3.656;2023-07-20T10:13:39;2.55;;;1.25;;
21046;SDS011;10682;50.874;3.656;2023-07-20T10:16:11;3.88;;;1.10;;
21046;SDS011;10682;50.874;3.656;2023-07-20T10:18:59;3.05;;;1.52;;
21046;SDS011;10682;50.874;3.656;2023-07-20T10:21:45;2.83;;;1.10;;
21046;SDS011;10682;50.874;3.656;2023-07-20T10:24:22;1.52;;;1.15;;
21046;SDS011;10682;50.874;3.656;2023-07-20T10:26:50;3.00;;;1.30;;
21046;SDS011;10682;50.874;3.656;2023-07-20T10:29:18;2.42;;;1.13;;
21046;SDS011;10682;50.874;3.656;2023-07-20T10:31:45;3.00;;;1.10;;
21046;SDS011;10682;50.874;3.656;2023-07-20T10:34:13;1.83;;;1.13;;
21046;SDS011;10682;50.874;3.656;2023-07-20T10:36:44;1.55;;;1.00;;
21046;SDS011;10682;50.874;3.656;2023-07-20T10:39:23;1.55;;;1.00;;
21046;SDS011;10682;50.874;3.656;2023-07-20T10:42:03;2.25;;;1.08;;
21046;SDS011;10682;50.874;3.656;2023-07-20T10:44:34;1.77;;;0.90;;
21046;SDS011;10682;50.874;3.656;2023-07-20T10:47:13;3.85;;;1.25;;
21046;SDS011;10682;50.874;3.656;2023-07-20T10:49:58;2.45;;;1.30;;
21046;SDS011;10682;50.874;3.656;2023-07-20T10:52:39;1.50;;;1.00;;
21046;SDS011;10682;50.874;3.656;2023-07-20T10:55:11;2.13;;;1.13;;
21046;SDS011;10682;50.874;3.656;2023-07-20T10:57:42;2.50;;;1.48;;
21046;SDS011;10682;50.874;3.656;2023-07-20T11:00:12;3.00;;;1.08;;
21046;SDS011;10682;50.874;3.656;2023-07-20T11:02:41;3.88;;;1.20;;
21046;SDS011;10682;50.874;3.656;2023-07-20T11:05:33;4.50;;;1.23;;
21046;SDS011;10682;50.874;3.656;2023-07-20T11:08:11;3.50;;;1.25;;
21046;SDS011;10682;50.874;3.656;2023-07-20T11:10:39;2.95;;;1.40;;
21046;SDS011;10682;50.874;3.656;2023-07-20T11:13:24;3.88;;;1.33;;
21046;SDS011;10682;50.874;3.656;2023-07-20T11:18:26;2.95;;;1.27;;
21046;SDS011;10682;50.874;3.656;2023-07-20T11:20:53;2.33;;;1.10;;
21046;SDS011;10682;50.874;3.656;2023-07-20T11:23:21;5.13;;;1.38;;
21046;SDS011;10682;50.874;3.656;2023-07-20T11:25:48;1.83;;;1.20;;
21046;SDS011;10682;50.874;3.656;2023-07-20T11:28:16;2.03;;;1.13;;
21046;SDS011;10682;50.874;3.656;2023-07-20T11:30:44;1.98;;;1.05;;
21046;SDS011;10682;50.874;3.656;2023-07-20T11:35:54;2.15;;;1.13;;
21046;SDS011;10682;50.874;3.656;2023-07-20T11:38:21;4.20;;;1.20;;
21046;SDS011;10682;50.874;3.656;2023-07-20T11:40:50;4.13;;;1.30;;
21046;SDS011;10682;50.874;3.656;2023-07-20T11:43:17;3.05;;;1.20;;
21046;SDS011;10682;50.874;3.656;2023-07-20T11:45:47;5.88;;;1.52;;
21046;SDS011;10682;50.874;3.656;2023-07-20T11:48:15;3.70;;;1.52;;
21046;SDS011;10682;50.874;3.656;2023-07-20T11:50:43;4.00;;;1.90;;
21046;SDS011;10682;50.874;3.656;2023-07-20T11:53:11;5.82;;;2.30;;
21046;SDS011;10682;50.874;3.656;2023-07-20T11:55:39;6.68;;;2.60;;
21046;SDS011;10682;50.874;3.656;2023-07-20T11:58:07;5.55;;;2.35;;
21046;SDS011;10682;50.874;3.656;2023-07-20T12:00:38;3.33;;;2.60;;
21046;SDS011;10682;50.874;3.656;2023-07-20T12:03:09;3.13;;;2.30;;
21046;SDS011;10682;50.874;3.656;2023-07-20T12:05:37;4.90;;;2.72;;
21046;SDS011;10682;50.874;3.656;2023-07-20T12:08:25;7.43;;;2.60;;
21046;SDS011;10682;50.874;3.656;2023-07-20T12:10:52;12.52;;;2.53;;
21046;SDS011;10682;50.874;3.656;2023-07-20T12:13:19;14.52;;;2.67;;
21046;SDS011;10682;50.874;3.656;2023-07-20T12:15:47;6.43;;;3.00;;
21046;SDS011;10682;50.874;3.656;2023-07-20T12:18:14;6.55;;;2.38;;
21046;SDS011;10682;50.874;3.656;2023-07-20T12:20:41;5.38;;;3.13;;
21046;SDS011;10682;50.874;3.656;2023-07-20T12:23:10;5.68;;;2.83;;
21046;SDS011;10682;50.874;3.656;2023-07-20T12:25:43;4.15;;;2.92;;
21046;SDS011;10682;50.874;3.656;2023-07-20T12:28:14;3.83;;;2.97;;
21046;SDS011;10682;50.874;3.656;2023-07-20T12:30:44;6.35;;;3.00;;
21046;SDS011;10682;50.874;3.656;2023-07-20T12:33:13;6.72;;;3.60;;
21046;SDS011;10682;50.874;3.656;2023-07-20T12:35:44;5.00;;;3.20;;
21046;SDS011;10682;50.874;3.656;2023-07-20T12:38:12;4.38;;;3.40;;
21046;SDS011;10682;50.874;3.656;2023-07-20T12:40:39;6.95;;;3.03;;
21046;SDS011;10682;50.874;3.656;2023-07-20T12:43:07;4.50;;;3.10;;
21046;SDS011;10682;50.874;3.656;2023-07-20T12:45:34;5.43;;;2.67;;
21046;SDS011;10682;50.874;3.656;2023-07-20T12:48:01;4.20;;;2.05;;
21046;SDS011;10682;50.874;3.656;2023-07-20T12:50:29;4.25;;;2.30;;
21046;SDS011;10682;50.874;3.656;2023-07-20T12:52:56;3.08;;;2.10;;
21046;SDS011;10682;50.874;3.656;2023-07-20T12:55:23;3.30;;;1.80;;
21046;SDS011;10682;50.874;3.656;2023-07-20T12:57:50;2.22;;;1.80;;
21046;SDS011;10682;50.874;3.656;2023-07-20T13:00:17;3.35;;;1.70;;
21046;SDS011;10682;50.874;3.656;2023-07-20T13:02:45;3.47;;;1.77;;
21046;SDS011;10682;50.874;3.656;2023-07-20T13:05:12;4.15;;;1.90;;
21046;SDS011;10682;50.874;3.656;2023-07-20T13:07:40;3.72;;;1.90;;
21046;SDS011;10682;50.874;3.656;2023-07-20T13:10:12;2.03;;;1.63;;
21046;SDS011;10682;50.874;3.656;2023-07-20T13:12:39;3.38;;;1.88;;
21046;SDS011;10682;50.874;3.656;2023-07-20T13:15:07;2.50;;;1.67;;
21046;SDS011;10682;50.874;3.656;2023-07-20T13:17:37;4.53;;;1.63;;
21046;SDS011;10682;50.874;3.656;2023-07-20T13:20:06;4.63;;;1.60;;
21046;SDS011;10682;50.874;3.656;2023-07-20T13:22:37;2.42;;;1.60;;
21046;SDS011;10682;50.874;3.656;2023-07-20T13:25:05;3.35;;;1.80;;
21046;SDS011;10682;50.874;3.656;2023-07-20T13:27:33;4.00;;;2.10;;
21046;SDS011;10682;50.874;3.656;2023-07-20T13:30:01;3.22;;;1.83;;
21046;SDS011;10682;50.874;3.656;2023-07-20T13:32:35;4.00;;;2.00;;
21046;SDS011;10682;50.874;3.656;2023-07-20T13:35:03;2.90;;;2.13;;
21046;SDS011;10682;50.874;3.656;2023-07-20T13:37:32;4.57;;;2.05;;
21046;SDS011;10682;50.874;3.656;2023-07-20T13:39:59;3.00;;;1.80;;
21046;SDS011;10682;50.874;3.656;2023-07-20T13:42:27;4.10;;;2.00;;
21046;SDS011;10682;50.874;3.656;2023-07-20T13:44:54;3.08;;;2.00;;
21046;SDS011;10682;50.874;3.656;2023-07-20T13:47:22;4.45;;;1.70;;
21046;SDS011;10682;50.874;3.656;2023-07-20T13:49:49;3.90;;;1.60;;
21046;SDS011;10682;50.874;3.656;2023-07-20T13:52:30;4.07;;;2.10;;
21046;SDS011;10682;50.874;3.656;2023-07-20T13:55:00;2.50;;;1.60;;
21046;SDS011;10682;50.874;3.656;2023-07-20T13:57:30;2.67;;;1.63;;
21046;SDS011;10682;50.874;3.656;2023-07-20T14:00:00;3.53;;;2.00;;
21046;SDS011;10682;50.874;3.656;2023-07-20T14:02:31;6.03;;;1.90;;
21046;SDS011;10682;50.874;3.656;2023-07-20T14:05:01;4.35;;;2.35;;
21046;SDS011;10682;50.874;3.656;2023-07-20T14:07:32;2.92;;;2.05;;
21046;SDS011;10682;50.874;3.656;2023-07-20T14:09:59;4.18;;;1.95;;
21046;SDS011;10682;50.874;3.656;2023-07-20T14:12:29;4.63;;;3.13;;
21046;SDS011;10682;50.874;3.656;2023-07-20T14:14:56;5.30;;;4.03;;
21046;SDS011;10682;50.874;3.656;2023-07-20T14:17:23;7.38;;;4.53;;
21046;SDS011;10682;50.874;3.656;2023-07-20T14:19:52;7.70;;;4.85;;
21046;SDS011;10682;50.874;3.656;2023-07-20T14:22:19;8.70;;;5.35;;
21046;SDS011;10682;50.874;3.656;2023-07-20T14:24:46;12.05;;;5.53;;
21046;SDS011;10682;50.874;3.656;2023-07-20T14:27:13;8.23;;;5.32;;
21046;SDS011;10682;50.874;3.656;2023-07-20T14:29:40;7.47;;;4.97;;
21046;SDS011;10682;50.874;3.656;2023-07-20T14:32:11;6.25;;;4.55;;
21046;SDS011;10682;50.874;3.656;2023-07-20T14:34:38;6.47;;;4.68;;
21046;SDS011;10682;50.874;3.656;2023-07-20T14:37:06;7.70;;;4.85;;
21046;SDS011;10682;50.874;3.656;2023-07-20T14:39:34;7.55;;;5.47;;
21046;SDS011;10682;50.874;3.656;2023-07-20T14:42:01;12.57;;;6.70;;
21046;SDS011;10682;50.874;3.656;2023-07-20T14:44:30;11.70;;;6.82;;
21046;SDS011;10682;50.874;3.656;2023-07-20T14:46:59;10.60;;;7.75;;
21046;SDS011;10682;50.874;3.656;2023-07-20T14:49:39;12.10;;;8.27;;
21046;SDS011;10682;50.874;3.656;2023-07-20T14:52:06;10.48;;;7.70;;
21046;SDS011;10682;50.874;3.656;2023-07-20T14:54:36;11.60;;;8.88;;
21046;SDS011;10682;50.874;3.656;2023-07-20T14:57:04;12.23;;;9.63;;
21046;SDS011;10682;50.874;3.656;2023-07-20T14:59:31;17.80;;;10.50;;
21046;SDS011;10682;50.874;3.656;2023-07-20T15:02:00;15.88;;;10.30;;